Terminal Aerodrome Forecast
Issued by NWS

Home | Current Version | Previous Version | Text Only | Print | Product List | Glossary On
Versions: 1 2 3 4 5 6 7 8 9 10 11 12 13 14 15 16 17 18 19
000
FTUS44 KBMX 041728
TAFMGM
TAF
KMGM 041728Z 0418/0518 27008KT P6SM VCTS SCT040CB
     FM042100 25007KT 3SM -TSRA BKN040CB
      TEMPO 0421/0424 1SM TSRA BKN025CB
     FM050500 19003KT 4SM -SHRA VCTS BKN035CB OVC050
     FM050900 19003KT 3SM -SHRA VCTS OVC015CB
     FM051400 25007KT P6SM VCTS BKN035CB=

USA.gov is the U.S. government's official web portal to all federal, state and local government web resources and services.